Time;durP1;ratioP1;P1;durP2;ratioP2;P2;SDS_P1;SDS_P2;PMS_P1;PMS_P2;Temp;Humidity;BMP_temperature;BMP_pressure;BME280_temperature;BME280_humidity;BME280_pressure;Samples;Min_cycle;Max_cycle;Signal;HPM_P1;HPM_P2
2021/09/30 00:00:06;;;;;;;2.03;0.52;;;;;;;;;;4996235;28;20033;-78
2021/09/30 00:02:33;;;;;;;2.67;0.80;;;;;;;;;;4996201;28;20034;-77
2021/09/30 00:04:59;;;;;;;3.58;0.70;;;;;;;;;;4995549;28;20034;-78
2021/09/30 00:07:25;;;;;;;2.10;0.45;;;;;;;;;;4995196;28;20031;-78
2021/09/30 00:09:51;;;;;;;1.70;0.60;;;;;;;;;;4995414;28;20022;-77
2021/09/30 00:12:19;;;;;;;1.90;0.50;;;;;;;;;;4995769;28;20027;-78
2021/09/30 00:47:10;;;;;;;2.80;0.40;;;;;;;;;;5006691;28;20045;-78
2021/09/30 00:49:50;;;;;;;4.30;0.75;;;;;;;;;;4995154;28;20069;-78
2021/09/30 02:21:36;;;;;;;4.75;1.35;;;;;;;;;;4993729;28;20030;-80
2021/09/30 02:24:14;;;;;;;5.05;0.57;;;;;;;;;;4994498;28;20034;-77
2021/09/30 02:29:28;;;;;;;3.40;0.77;;;;;;;;;;4992549;28;20031;-77
2021/09/30 02:59:34;;;;;;;3.78;0.75;;;;;;;;;;4992493;28;20049;-78
2021/09/30 03:02:01;;;;;;;4.63;1.30;;;;;;;;;;4992814;28;20030;-78
2021/09/30 03:04:27;;;;;;;3.33;0.70;;;;;;;;;;4992872;28;20053;-78
2021/09/30 03:06:55;;;;;;;3.97;0.95;;;;;;;;;;4993067;28;20031;-78
2021/09/30 03:09:21;;;;;;;7.68;0.90;;;;;;;;;;4991915;28;20117;-78
2021/09/30 03:11:53;;;;;;;2.20;0.98;;;;;;;;;;4996609;28;20393;-77
2021/09/30 03:14:20;;;;;;;8.30;1.07;;;;;;;;;;4995056;28;20026;-77
2021/09/30 03:16:51;;;;;;;2.90;1.00;;;;;;;;;;4995916;28;20479;-77
2021/09/30 03:24:27;;;;;;;2.97;0.70;;;;;;;;;;4996416;28;20023;-77
2021/09/30 03:26:53;;;;;;;2.13;0.80;;;;;;;;;;4996393;28;20200;-77
2021/09/30 03:29:19;;;;;;;6.45;1.30;;;;;;;;;;4995723;28;20027;-77
2021/09/30 03:31:46;;;;;;;3.50;0.90;;;;;;;;;;4995520;28;20105;-77
2021/09/30 03:34:12;;;;;;;2.08;0.80;;;;;;;;;;4994404;28;20041;-77
2021/09/30 03:36:38;;;;;;;4.57;1.13;;;;;;;;;;4996407;28;20060;-80
2021/09/30 03:39:07;;;;;;;3.70;1.08;;;;;;;;;;4995812;28;20038;-77
2021/09/30 03:41:33;;;;;;;3.38;0.80;;;;;;;;;;4995754;28;20403;-78
2021/09/30 03:43:59;;;;;;;2.50;0.85;;;;;;;;;;4994866;28;20030;-78
2021/09/30 03:46:27;;;;;;;6.13;1.05;;;;;;;;;;4994727;28;20037;-78
2021/09/30 03:48:55;;;;;;;3.08;0.95;;;;;;;;;;4994718;28;20030;-78
2021/09/30 03:51:46;;;;;;;5.55;0.90;;;;;;;;;;4995083;28;20030;-79
2021/09/30 03:54:26;;;;;;;4.28;1.05;;;;;;;;;;4994900;28;20395;-78
2021/09/30 03:59:24;;;;;;;6.80;1.30;;;;;;;;;;4994061;28;20030;-79
2021/09/30 04:01:55;;;;;;;3.90;1.05;;;;;;;;;;4996187;28;20085;-81
2021/09/30 04:04:22;;;;;;;4.82;0.95;;;;;;;;;;4997923;28;20117;-80
2021/09/30 04:06:48;;;;;;;5.55;1.00;;;;;;;;;;4997001;28;20027;-78
2021/09/30 04:09:14;;;;;;;2.08;0.70;;;;;;;;;;4994114;28;20030;-78
2021/09/30 04:11:41;;;;;;;4.45;1.20;;;;;;;;;;4994975;28;20042;-78
2021/09/30 04:14:08;;;;;;;4.35;1.30;;;;;;;;;;4976842;28;20030;-78
2021/09/30 04:16:34;;;;;;;2.83;1.17;;;;;;;;;;4994136;28;20148;-78
2021/09/30 04:19:00;;;;;;;4.45;1.27;;;;;;;;;;4993923;28;20037;-78
2021/09/30 04:21:26;;;;;;;1.52;0.90;;;;;;;;;;4994191;28;20035;-77
2021/09/30 04:23:52;;;;;;;3.92;1.10;;;;;;;;;;4994393;28;20434;-78
2021/09/30 04:26:18;;;;;;;3.83;1.38;;;;;;;;;;4994905;28;20027;-78
2021/09/30 04:28:44;;;;;;;3.38;1.25;;;;;;;;;;4994011;28;20399;-78
2021/09/30 04:31:10;;;;;;;4.80;1.40;;;;;;;;;;4993652;28;20029;-78
2021/09/30 04:33:36;;;;;;;3.90;1.45;;;;;;;;;;4993826;28;20022;-78
2021/09/30 04:36:02;;;;;;;3.38;1.15;;;;;;;;;;4992937;28;20093;-78
2021/09/30 04:38:28;;;;;;;3.72;1.50;;;;;;;;;;4994250;28;20488;-77
2021/09/30 04:40:54;;;;;;;5.28;1.63;;;;;;;;;;4993685;28;20034;-77
2021/09/30 04:43:20;;;;;;;4.90;1.67;;;;;;;;;;4992789;28;20042;-77
2021/09/30 04:45:48;;;;;;;4.93;1.75;;;;;;;;;;4993116;28;20635;-78
2021/09/30 04:48:14;;;;;;;6.75;1.48;;;;;;;;;;4951567;28;20118;-78
2021/09/30 04:50:41;;;;;;;3.88;1.52;;;;;;;;;;4975427;28;20048;-78
2021/09/30 04:53:07;;;;;;;6.82;1.55;;;;;;;;;;4994388;28;20023;-78
2021/09/30 04:55:33;;;;;;;3.63;1.42;;;;;;;;;;4994723;28;20034;-78
2021/09/30 04:57:59;;;;;;;7.95;1.60;;;;;;;;;;4994211;28;20467;-78
2021/09/30 05:00:25;;;;;;;3.00;1.45;;;;;;;;;;4993595;28;20034;-78
2021/09/30 05:02:51;;;;;;;3.55;1.48;;;;;;;;;;4993742;28;20054;-78
2021/09/30 05:05:17;;;;;;;5.25;1.77;;;;;;;;;;4994569;28;20120;-78
2021/09/30 05:07:43;;;;;;;2.10;1.40;;;;;;;;;;4994637;28;20034;-78
2021/09/30 05:10:11;;;;;;;5.03;1.60;;;;;;;;;;4995132;28;20033;-81
2021/09/30 05:12:38;;;;;;;4.85;1.67;;;;;;;;;;4995857;28;20022;-81
2021/09/30 05:15:04;;;;;;;3.22;1.40;;;;;;;;;;4994709;28;20097;-78
2021/09/30 05:17:32;;;;;;;5.85;1.92;;;;;;;;;;4993833;28;20061;-78
2021/09/30 05:19:58;;;;;;;3.60;1.52;;;;;;;;;;4995025;28;20018;-80
2021/09/30 05:22:24;;;;;;;8.35;2.40;;;;;;;;;;4993758;28;20022;-78
2021/09/30 05:24:50;;;;;;;4.97;2.17;;;;;;;;;;4993282;28;20543;-78
2021/09/30 05:27:16;;;;;;;6.25;2.22;;;;;;;;;;4992923;28;20038;-78
2021/09/30 05:29:42;;;;;;;4.38;2.33;;;;;;;;;;4993116;28;20030;-78
2021/09/30 05:32:08;;;;;;;3.70;1.85;;;;;;;;;;4992711;28;20046;-78
2021/09/30 05:34:34;;;;;;;2.50;1.50;;;;;;;;;;4993238;28;20027;-78
2021/09/30 05:37:00;;;;;;;7.47;2.13;;;;;;;;;;4992167;28;20030;-78
2021/09/30 05:39:26;;;;;;;3.58;1.77;;;;;;;;;;4992589;28;20038;-78
2021/09/30 05:41:54;;;;;;;4.30;1.75;;;;;;;;;;4993133;28;20030;-78
2021/09/30 05:44:24;;;;;;;5.93;1.83;;;;;;;;;;4992700;28;20415;-78
2021/09/30 05:46:55;;;;;;;4.88;1.83;;;;;;;;;;4992648;28;20085;-78
2021/09/30 05:49:21;;;;;;;5.15;1.88;;;;;;;;;;4992314;28;20014;-78
2021/09/30 05:51:47;;;;;;;6.03;2.10;;;;;;;;;;4994313;28;20053;-78
2021/09/30 05:54:13;;;;;;;2.85;1.67;;;;;;;;;;5002359;28;20030;-78
2021/09/30 05:56:39;;;;;;;5.18;2.45;;;;;;;;;;4983181;28;20042;-78
2021/09/30 05:59:06;;;;;;;6.53;2.60;;;;;;;;;;5007979;28;20030;-77
2021/09/30 06:12:17;;;;;;;5.05;1.95;;;;;;;;;;4993199;28;20062;-79
2021/09/30 06:14:45;;;;;;;4.63;1.65;;;;;;;;;;4976092;28;20566;-79
2021/09/30 06:17:11;;;;;;;3.40;1.60;;;;;;;;;;4980512;28;20057;-78
2021/09/30 06:19:37;;;;;;;5.05;2.10;;;;;;;;;;4980999;28;20030;-78
2021/09/30 06:22:07;;;;;;;4.28;2.10;;;;;;;;;;4994527;28;20546;-80
2021/09/30 06:24:34;;;;;;;6.38;2.67;;;;;;;;;;4994247;28;20035;-79
2021/09/30 06:27:00;;;;;;;8.18;2.40;;;;;;;;;;4977873;28;20113;-79
2021/09/30 06:29:26;;;;;;;6.30;2.53;;;;;;;;;;4992389;28;20116;-79
2021/09/30 06:31:52;;;;;;;6.32;2.50;;;;;;;;;;4992566;28;20023;-80
2021/09/30 06:34:18;;;;;;;10.15;3.08;;;;;;;;;;4994137;28;20031;-79
2021/09/30 06:36:44;;;;;;;8.85;3.20;;;;;;;;;;4995406;28;20026;-80
2021/09/30 06:39:10;;;;;;;5.45;2.70;;;;;;;;;;4995142;28;20093;-81
2021/09/30 06:41:36;;;;;;;9.10;3.15;;;;;;;;;;4994710;28;20041;-81
2021/09/30 06:44:02;;;;;;;8.07;3.00;;;;;;;;;;4994944;28;20045;-78
2021/09/30 06:46:28;;;;;;;5.30;2.63;;;;;;;;;;4997077;28;20022;-75
2021/09/30 06:48:54;;;;;;;13.50;2.70;;;;;;;;;;4995322;28;20076;-73
2021/09/30 06:51:20;;;;;;;5.10;2.40;;;;;;;;;;4995492;28;20039;-73
2021/09/30 06:53:46;;;;;;;6.10;2.50;;;;;;;;;;4977024;28;20021;-73
2021/09/30 06:56:15;;;;;;;3.88;2.20;;;;;;;;;;4995762;28;20057;-73
2021/09/30 06:58:43;;;;;;;3.97;1.80;;;;;;;;;;4995603;28;20022;-73
2021/09/30 07:01:10;;;;;;;2.97;1.80;;;;;;;;;;4993945;28;20566;-73
2021/09/30 07:03:37;;;;;;;5.60;1.75;;;;;;;;;;4995034;28;20034;-73
2021/09/30 07:06:03;;;;;;;4.93;1.67;;;;;;;;;;4993909;28;20034;-73
2021/09/30 07:08:29;;;;;;;9.35;1.63;;;;;;;;;;4994346;28;20026;-73
2021/09/30 07:10:55;;;;;;;4.65;1.63;;;;;;;;;;4995052;28;20033;-73
2021/09/30 07:13:21;;;;;;;5.65;1.50;;;;;;;;;;4995739;28;20102;-73
2021/09/30 07:15:48;;;;;;;6.65;1.70;;;;;;;;;;4995675;28;20535;-73
2021/09/30 07:18:20;;;;;;;4.45;1.95;;;;;;;;;;4995521;28;20027;-73
2021/09/30 07:20:50;;;;;;;2.80;1.25;;;;;;;;;;4994842;28;20022;-73
2021/09/30 07:23:17;;;;;;;2.30;1.10;;;;;;;;;;4995761;28;20029;-73
2021/09/30 07:25:43;;;;;;;3.45;0.85;;;;;;;;;;4995442;28;20037;-73
2021/09/30 07:28:09;;;;;;;5.43;0.85;;;;;;;;;;4995536;28;20018;-73
2021/09/30 07:30:35;;;;;;;3.95;1.15;;;;;;;;;;4995019;28;20089;-73
2021/09/30 07:33:02;;;;;;;3.55;1.30;;;;;;;;;;4996968;28;20080;-73
2021/09/30 07:35:28;;;;;;;3.05;1.05;;;;;;;;;;4995276;28;20033;-73
2021/09/30 07:37:54;;;;;;;4.97;1.08;;;;;;;;;;4995558;28;20372;-73
2021/09/30 07:40:21;;;;;;;3.53;1.23;;;;;;;;;;4994486;28;20062;-73
2021/09/30 07:42:46;;;;;;;4.47;1.20;;;;;;;;;;4995151;28;20542;-73
2021/09/30 07:45:12;;;;;;;4.88;1.15;;;;;;;;;;4977832;28;20181;-73
2021/09/30 07:47:38;;;;;;;5.55;1.35;;;;;;;;;;4994779;28;20049;-73
2021/09/30 07:50:05;;;;;;;4.93;0.70;;;;;;;;;;4994571;28;20034;-73
2021/09/30 07:52:31;;;;;;;4.00;0.80;;;;;;;;;;4994755;28;20033;-73
2021/09/30 07:54:59;;;;;;;4.45;0.85;;;;;;;;;;4994639;28;20117;-73
2021/09/30 07:57:25;;;;;;;2.90;0.82;;;;;;;;;;4994879;28;20018;-73
2021/09/30 07:59:51;;;;;;;4.72;1.00;;;;;;;;;;4994456;28;20105;-73
2021/09/30 08:02:17;;;;;;;3.30;1.10;;;;;;;;;;4994567;28;20057;-73
2021/09/30 08:04:43;;;;;;;4.63;1.15;;;;;;;;;;4994703;28;20042;-73
2021/09/30 08:07:09;;;;;;;3.25;0.95;;;;;;;;;;4994834;28;20483;-74
2021/09/30 08:09:35;;;;;;;3.58;0.90;;;;;;;;;;4994057;28;20065;-74
2021/09/30 08:12:02;;;;;;;3.15;0.70;;;;;;;;;;4994805;28;20034;-73
2021/09/30 08:14:28;;;;;;;5.07;1.20;;;;;;;;;;4994581;28;20105;-74
2021/09/30 08:16:54;;;;;;;4.35;1.00;;;;;;;;;;4993412;28;20033;-73
2021/09/30 08:19:20;;;;;;;2.13;0.70;;;;;;;;;;4993860;28;20034;-73
2021/09/30 08:21:46;;;;;;;2.20;0.60;;;;;;;;;;4994597;28;20431;-74
2021/09/30 08:24:13;;;;;;;4.80;1.10;;;;;;;;;;4994495;28;20113;-74
2021/09/30 08:26:39;;;;;;;4.55;1.20;;;;;;;;;;4994407;28;20034;-74
2021/09/30 08:29:05;;;;;;;3.35;0.82;;;;;;;;;;4993745;28;20026;-74
2021/09/30 08:31:31;;;;;;;6.97;0.93;;;;;;;;;;4994299;28;20030;-74
2021/09/30 08:33:58;;;;;;;16.42;1.27;;;;;;;;;;4994121;28;20114;-74
2021/09/30 08:36:25;;;;;;;8.23;1.00;;;;;;;;;;4994443;28;20022;-74
2021/09/30 08:38:52;;;;;;;8.35;0.80;;;;;;;;;;4993837;28;20035;-74
2021/09/30 08:41:20;;;;;;;3.45;0.50;;;;;;;;;;4994014;28;20446;-73
2021/09/30 08:43:46;;;;;;;4.57;0.95;;;;;;;;;;4994118;28;20030;-74
2021/09/30 08:46:13;;;;;;;3.25;0.80;;;;;;;;;;4994009;28;20031;-73
2021/09/30 08:48:39;;;;;;;8.60;1.30;;;;;;;;;;4993746;28;20447;-73
2021/09/30 08:51:06;;;;;;;6.45;0.93;;;;;;;;;;4993588;28;20141;-74
2021/09/30 08:53:33;;;;;;;2.35;0.68;;;;;;;;;;4993594;28;20543;-74
2021/09/30 08:56:00;;;;;;;2.72;0.70;;;;;;;;;;4993892;28;20030;-74
2021/09/30 08:58:26;;;;;;;2.95;0.80;;;;;;;;;;4993907;28;20034;-73
2021/09/30 09:00:53;;;;;;;1.98;0.60;;;;;;;;;;4993392;28;20056;-73
2021/09/30 09:03:39;;;;;;;5.93;0.82;;;;;;;;;;4993552;28;20479;-73
2021/09/30 09:06:09;;;;;;;5.38;0.80;;;;;;;;;;4992469;28;20064;-74
2021/09/30 09:08:35;;;;;;;9.05;1.00;;;;;;;;;;4992888;28;20033;-74
2021/09/30 09:11:02;;;;;;;3.78;1.02;;;;;;;;;;4993018;28;20026;-74
2021/09/30 09:13:29;;;;;;;9.65;1.30;;;;;;;;;;4993541;28;20023;-74
2021/09/30 09:15:59;;;;;;;7.10;0.82;;;;;;;;;;4993625;28;20022;-74
2021/09/30 09:18:25;;;;;;;3.17;0.60;;;;;;;;;;4993069;28;20101;-74
2021/09/30 09:21:11;;;;;;;3.20;0.50;;;;;;;;;;4992993;28;20022;-74
2021/09/30 09:23:50;;;;;;;2.55;0.60;;;;;;;;;;4993304;28;20545;-74
2021/09/30 09:26:17;;;;;;;3.10;0.70;;;;;;;;;;4993463;28;20073;-74
2021/09/30 09:29:02;;;;;;;3.28;0.80;;;;;;;;;;4993176;28;20030;-74
2021/09/30 09:31:32;;;;;;;7.30;0.90;;;;;;;;;;4993433;28;20022;-74
2021/09/30 09:34:00;;;;;;;2.95;0.60;;;;;;;;;;4992932;28;20085;-74
2021/09/30 09:36:27;;;;;;;6.65;0.73;;;;;;;;;;4993287;28;20495;-74
2021/09/30 09:38:54;;;;;;;3.30;0.60;;;;;;;;;;4992723;28;20046;-74
2021/09/30 09:41:28;;;;;;;5.90;0.70;;;;;;;;;;4993187;28;20058;-74
2021/09/30 09:43:55;;;;;;;5.63;1.05;;;;;;;;;;4992694;28;20499;-74
2021/09/30 09:46:22;;;;;;;2.30;0.55;;;;;;;;;;4975658;28;20430;-74
2021/09/30 09:48:55;;;;;;;3.13;0.65;;;;;;;;;;4992597;28;20341;-74
2021/09/30 09:51:21;;;;;;;3.13;0.52;;;;;;;;;;4993031;28;20102;-74
2021/09/30 09:53:47;;;;;;;9.55;0.68;;;;;;;;;;4993059;28;20022;-75
2021/09/30 09:56:18;;;;;;;4.18;1.45;;;;;;;;;;4993153;28;20095;-74
2021/09/30 09:58:55;;;;;;;3.72;0.80;;;;;;;;;;4992549;28;20026;-74
2021/09/30 10:01:27;;;;;;;5.03;0.85;;;;;;;;;;4992889;28;20070;-74
2021/09/30 10:03:55;;;;;;;1.95;0.68;;;;;;;;;;4992567;28;20027;-74
2021/09/30 10:06:21;;;;;;;4.28;0.40;;;;;;;;;;4992486;28;20372;-74
2021/09/30 10:08:47;;;;;;;3.13;0.60;;;;;;;;;;4992135;28;20034;-74
2021/09/30 10:11:13;;;;;;;3.78;0.60;;;;;;;;;;4975030;28;20030;-74
2021/09/30 10:13:39;;;;;;;1.92;0.45;;;;;;;;;;4992053;28;20182;-74
2021/09/30 10:16:05;;;;;;;3.58;0.52;;;;;;;;;;4992505;28;20519;-74
2021/09/30 10:18:32;;;;;;;4.07;0.65;;;;;;;;;;4991787;28;20037;-74
2021/09/30 10:20:58;;;;;;;3.15;0.50;;;;;;;;;;4992122;28;20030;-75
2021/09/30 10:23:25;;;;;;;2.95;0.63;;;;;;;;;;4994208;28;20158;-74
2021/09/30 10:25:53;;;;;;;1.77;0.43;;;;;;;;;;4994488;28;20030;-74
2021/09/30 10:28:19;;;;;;;2.00;0.63;;;;;;;;;;4992213;28;20034;-74
2021/09/30 10:30:47;;;;;;;3.85;0.57;;;;;;;;;;4991828;28;20023;-74
2021/09/30 10:33:14;;;;;;;2.13;0.40;;;;;;;;;;4991874;28;20049;-74
2021/09/30 10:35:44;;;;;;;4.03;0.70;;;;;;;;;;4992412;28;20030;-74
2021/09/30 10:38:17;;;;;;;3.30;0.50;;;;;;;;;;4992169;28;20056;-76
2021/09/30 10:41:01;;;;;;;3.55;0.85;;;;;;;;;;4974331;28;20104;-76
2021/09/30 10:43:35;;;;;;;1.85;0.45;;;;;;;;;;4992084;28;20081;-76
2021/09/30 10:46:02;;;;;;;3.20;0.50;;;;;;;;;;4992380;28;20018;-76
2021/09/30 10:48:28;;;;;;;2.75;0.50;;;;;;;;;;4983308;28;20046;-76
2021/09/30 10:50:56;;;;;;;2.78;0.43;;;;;;;;;;4991493;28;20031;-76
2021/09/30 10:53:42;;;;;;;1.70;0.45;;;;;;;;;;4991697;28;20045;-74
2021/09/30 10:56:26;;;;;;;2.85;0.65;;;;;;;;;;4988147;28;20376;-74
2021/09/30 10:58:53;;;;;;;4.75;0.70;;;;;;;;;;4986903;28;20058;-74
2021/09/30 11:01:19;;;;;;;4.10;0.77;;;;;;;;;;4991838;28;20093;-74
2021/09/30 11:03:58;;;;;;;1.95;0.55;;;;;;;;;;4991584;28;20038;-75
2021/09/30 11:06:24;;;;;;;5.70;0.60;;;;;;;;;;4991904;28;20038;-75
2021/09/30 11:09:09;;;;;;;2.75;0.40;;;;;;;;;;4985447;28;20026;-80
2021/09/30 11:11:35;;;;;;;1.85;0.40;;;;;;;;;;4994846;28;20537;-79
2021/09/30 11:14:01;;;;;;;2.03;0.40;;;;;;;;;;4991871;28;20031;-80
2021/09/30 11:16:50;;;;;;;3.03;0.50;;;;;;;;;;4996280;28;20085;-80
2021/09/30 11:19:33;;;;;;;2.42;0.45;;;;;;;;;;4995893;28;20037;-80
2021/09/30 11:22:22;;;;;;;1.35;0.82;;;;;;;;;;4994853;28;20054;-78
2021/09/30 11:24:50;;;;;;;2.53;0.50;;;;;;;;;;4992317;28;20093;-80
2021/09/30 11:27:17;;;;;;;2.65;0.50;;;;;;;;;;4986746;28;20037;-78
2021/09/30 11:29:43;;;;;;;2.15;0.55;;;;;;;;;;4995647;28;20027;-78
2021/09/30 11:32:09;;;;;;;1.58;0.43;;;;;;;;;;5015260;28;20126;-79
2021/09/30 11:34:35;;;;;;;3.80;0.55;;;;;;;;;;4998559;28;20526;-79
2021/09/30 11:37:13;;;;;;;1.92;0.50;;;;;;;;;;4997949;28;20389;-80
2021/09/30 11:39:39;;;;;;;1.50;0.30;;;;;;;;;;4996768;28;20049;-79
2021/09/30 11:42:05;;;;;;;1.88;0.50;;;;;;;;;;4997507;28;20395;-80
2021/09/30 11:44:31;;;;;;;1.67;0.40;;;;;;;;;;4995766;28;20034;-79
2021/09/30 11:46:58;;;;;;;2.45;0.40;;;;;;;;;;4996637;28;20038;-79
2021/09/30 11:49:25;;;;;;;1.55;0.50;;;;;;;;;;4996023;28;20471;-79
2021/09/30 11:51:52;;;;;;;3.53;0.52;;;;;;;;;;4989567;28;20023;-79
2021/09/30 11:54:19;;;;;;;2.58;0.40;;;;;;;;;;4990378;28;20069;-78
2021/09/30 11:56:46;;;;;;;2.97;0.60;;;;;;;;;;4983425;28;20045;-79
2021/09/30 11:59:13;;;;;;;4.38;0.52;;;;;;;;;;4987264;28;20030;-78
2021/09/30 12:01:45;;;;;;;1.88;0.50;;;;;;;;;;4992761;28;20547;-78
2021/09/30 12:04:12;;;;;;;3.58;0.70;;;;;;;;;;4992904;28;20018;-78
2021/09/30 12:06:39;;;;;;;4.72;0.75;;;;;;;;;;4988788;28;20036;-78
2021/09/30 12:09:07;;;;;;;4.45;0.98;;;;;;;;;;4970940;28;20055;-78
2021/09/30 12:11:35;;;;;;;3.38;0.55;;;;;;;;;;4972104;28;20459;-78
2021/09/30 12:14:01;;;;;;;2.05;0.43;;;;;;;;;;4979213;28;20041;-77
2021/09/30 12:16:27;;;;;;;1.70;0.43;;;;;;;;;;4989864;28;20083;-77
2021/09/30 12:19:00;;;;;;;2.05;0.50;;;;;;;;;;4988284;28;20034;-80
2021/09/30 12:21:40;;;;;;;2.17;0.50;;;;;;;;;;4977858;28;20485;-78
2021/09/30 12:24:07;;;;;;;2.05;0.57;;;;;;;;;;4978886;28;20034;-78
2021/09/30 12:26:34;;;;;;;3.03;0.70;;;;;;;;;;4997469;28;20043;-77
2021/09/30 12:29:01;;;;;;;3.00;0.82;;;;;;;;;;5008160;28;20033;-79
2021/09/30 12:31:29;;;;;;;1.67;0.30;;;;;;;;;;4991081;28;20027;-78
2021/09/30 12:33:56;;;;;;;2.28;0.50;;;;;;;;;;4972014;28;20030;-78
2021/09/30 12:36:22;;;;;;;2.78;0.50;;;;;;;;;;4972868;28;20030;-78
2021/09/30 12:39:02;;;;;;;3.38;0.47;;;;;;;;;;4976833;28;20053;-77
2021/09/30 12:41:30;;;;;;;2.20;0.50;;;;;;;;;;4992629;28;20065;-78
2021/09/30 12:44:09;;;;;;;1.50;0.40;;;;;;;;;;4993149;28;20041;-76
2021/09/30 12:46:42;;;;;;;3.72;0.70;;;;;;;;;;4996144;28;20031;-79
2021/09/30 12:49:08;;;;;;;2.53;0.43;;;;;;;;;;5000590;28;20035;-79
2021/09/30 12:51:34;;;;;;;1.45;0.60;;;;;;;;;;4998805;28;20094;-80
2021/09/30 12:54:00;;;;;;;1.98;0.47;;;;;;;;;;4995572;28;20109;-77
2021/09/30 12:56:33;;;;;;;2.88;0.50;;;;;;;;;;4976613;28;20086;-77
2021/09/30 12:59:12;;;;;;;2.08;0.52;;;;;;;;;;4976896;28;20022;-77
2021/09/30 13:01:38;;;;;;;1.52;0.40;;;;;;;;;;4993223;28;20031;-77
2021/09/30 13:04:21;;;;;;;4.45;1.45;;;;;;;;;;4993046;28;20027;-77
2021/09/30 13:06:54;;;;;;;3.25;0.50;;;;;;;;;;5000861;28;20090;-77
2021/09/30 13:09:21;;;;;;;1.98;0.32;;;;;;;;;;5000769;28;20045;-76
2021/09/30 13:11:57;;;;;;;2.13;0.40;;;;;;;;;;4984194;28;20027;-79
2021/09/30 13:14:26;;;;;;;1.48;0.50;;;;;;;;;;4996045;28;20138;-78
2021/09/30 13:16:54;;;;;;;2.50;0.40;;;;;;;;;;4974020;28;20042;-78
2021/09/30 13:19:21;;;;;;;2.65;0.52;;;;;;;;;;4989249;28;20110;-77
2021/09/30 13:21:54;;;;;;;3.25;0.63;;;;;;;;;;4988560;28;20042;-79
2021/09/30 13:24:20;;;;;;;4.97;1.33;;;;;;;;;;4973052;28;20030;-79
2021/09/30 13:26:46;;;;;;;5.55;0.70;;;;;;;;;;4972911;28;20026;-77
2021/09/30 13:29:12;;;;;;;2.60;0.38;;;;;;;;;;4990380;28;20027;-79
2021/09/30 13:31:38;;;;;;;2.63;0.30;;;;;;;;;;4989435;28;20495;-79
2021/09/30 13:34:04;;;;;;;4.90;0.40;;;;;;;;;;4989506;28;20046;-78
2021/09/30 13:36:32;;;;;;;3.22;0.47;;;;;;;;;;4988741;28;20037;-78
2021/09/30 13:38:58;;;;;;;2.92;0.70;;;;;;;;;;4989468;28;20411;-79
2021/09/30 13:41:24;;;;;;;5.07;0.77;;;;;;;;;;4989148;28;20023;-78
2021/09/30 13:43:51;;;;;;;3.17;0.50;;;;;;;;;;4988403;28;20077;-78
2021/09/30 13:46:17;;;;;;;1.38;0.35;;;;;;;;;;4989701;28;20031;-79
2021/09/30 13:48:43;;;;;;;1.80;0.70;;;;;;;;;;4971725;28;20030;-78
2021/09/30 13:51:09;;;;;;;2.28;0.45;;;;;;;;;;4983775;28;20031;-79
2021/09/30 13:53:35;;;;;;;2.15;0.30;;;;;;;;;;4973563;28;20031;-77
2021/09/30 13:56:01;;;;;;;4.72;0.60;;;;;;;;;;4988215;28;20088;-77
2021/09/30 13:58:27;;;;;;;1.27;0.30;;;;;;;;;;4988548;28;20034;-78
2021/09/30 14:00:53;;;;;;;4.50;0.40;;;;;;;;;;4971339;28;20073;-78
2021/09/30 14:03:19;;;;;;;2.88;0.57;;;;;;;;;;4988379;28;20034;-78
2021/09/30 14:05:45;;;;;;;2.00;0.40;;;;;;;;;;4988354;28;20023;-79
2021/09/30 14:08:12;;;;;;;2.13;0.43;;;;;;;;;;4989065;28;20049;-78
2021/09/30 14:10:39;;;;;;;2.90;0.68;;;;;;;;;;4988032;28;20146;-78
2021/09/30 14:13:05;;;;;;;1.90;0.50;;;;;;;;;;4988423;28;20050;-78
2021/09/30 14:15:31;;;;;;;1.63;0.30;;;;;;;;;;4989269;28;20022;-79
2021/09/30 14:17:57;;;;;;;1.65;0.50;;;;;;;;;;4990324;28;20471;-78
2021/09/30 14:20:23;;;;;;;2.65;0.40;;;;;;;;;;4986324;28;20517;-78
2021/09/30 14:22:49;;;;;;;1.88;0.47;;;;;;;;;;4989279;28;20037;-78
2021/09/30 14:25:15;;;;;;;0.73;0.20;;;;;;;;;;4988480;28;20062;-77
2021/09/30 14:27:41;;;;;;;2.70;0.47;;;;;;;;;;4987518;28;20026;-78
2021/09/30 14:30:09;;;;;;;5.03;0.60;;;;;;;;;;4987431;28;20023;-78
2021/09/30 14:32:35;;;;;;;3.97;0.32;;;;;;;;;;4988254;28;20462;-78
2021/09/30 14:35:01;;;;;;;1.48;0.47;;;;;;;;;;4980895;28;20025;-78
2021/09/30 14:37:27;;;;;;;3.47;0.70;;;;;;;;;;4989327;28;20031;-78
2021/09/30 14:39:53;;;;;;;3.30;0.50;;;;;;;;;;4988164;28;20041;-77
2021/09/30 14:42:19;;;;;;;3.42;0.50;;;;;;;;;;4988690;28;20045;-77
2021/09/30 14:44:46;;;;;;;4.07;0.60;;;;;;;;;;4994590;28;20035;-80
2021/09/30 14:47:13;;;;;;;1.35;0.40;;;;;;;;;;4993637;28;20030;-79
2021/09/30 14:49:39;;;;;;;4.15;0.50;;;;;;;;;;4974408;28;20031;-79
2021/09/30 14:52:10;;;;;;;4.28;0.45;;;;;;;;;;4988863;28;20027;-78
2021/09/30 14:54:36;;;;;;;2.40;0.63;;;;;;;;;;4974443;28;20385;-79
2021/09/30 14:57:02;;;;;;;2.38;1.10;;;;;;;;;;4971680;28;20030;-79
2021/09/30 14:59:28;;;;;;;1.52;0.30;;;;;;;;;;4984691;28;20034;-79
2021/09/30 15:01:55;;;;;;;3.63;0.70;;;;;;;;;;4987179;28;20027;-79
2021/09/30 15:04:21;;;;;;;3.25;0.75;;;;;;;;;;4988668;28;20018;-78
2021/09/30 15:06:48;;;;;;;1.73;0.50;;;;;;;;;;4993413;28;20085;-79
2021/09/30 15:09:14;;;;;;;1.30;0.40;;;;;;;;;;4992368;28;20125;-79
2021/09/30 15:11:40;;;;;;;3.25;0.43;;;;;;;;;;4993236;28;20039;-79
2021/09/30 15:14:07;;;;;;;1.00;0.32;;;;;;;;;;4993227;28;20068;-79
2021/09/30 15:16:36;;;;;;;2.08;0.60;;;;;;;;;;4993619;28;20029;-79
2021/09/30 15:19:07;;;;;;;4.35;0.30;;;;;;;;;;4992815;28;20034;-78
2021/09/30 15:21:34;;;;;;;4.97;0.40;;;;;;;;;;4993831;28;20416;-80
2021/09/30 15:24:02;;;;;;;2.15;0.47;;;;;;;;;;4996001;28;20038;-79
2021/09/30 15:26:29;;;;;;;1.92;0.50;;;;;;;;;;4990971;28;20106;-80
2021/09/30 15:28:55;;;;;;;5.13;0.80;;;;;;;;;;4992200;28;20026;-80
2021/09/30 15:31:25;;;;;;;2.28;0.60;;;;;;;;;;4985779;28;20035;-80
2021/09/30 15:33:52;;;;;;;1.98;0.50;;;;;;;;;;4995415;28;20665;-79
2021/09/30 15:36:18;;;;;;;7.90;0.98;;;;;;;;;;4995392;28;20031;-80
2021/09/30 15:38:44;;;;;;;2.50;0.55;;;;;;;;;;4994942;28;20030;-79
2021/09/30 15:41:11;;;;;;;3.78;0.60;;;;;;;;;;4993535;28;20030;-80
2021/09/30 15:43:37;;;;;;;1.90;0.60;;;;;;;;;;4992794;28;20038;-80
2021/09/30 15:46:04;;;;;;;1.60;0.35;;;;;;;;;;4994167;28;20057;-79
2021/09/30 15:48:30;;;;;;;2.17;0.52;;;;;;;;;;4992869;28;20022;-80
2021/09/30 15:50:57;;;;;;;4.68;0.55;;;;;;;;;;4991865;28;20014;-79
2021/09/30 15:53:23;;;;;;;2.40;0.60;;;;;;;;;;4988077;28;20413;-80
2021/09/30 15:55:49;;;;;;;3.00;0.85;;;;;;;;;;4992963;28;20026;-79
2021/09/30 15:58:15;;;;;;;2.25;0.35;;;;;;;;;;4991731;28;20805;-80
2021/09/30 16:00:41;;;;;;;3.40;0.60;;;;;;;;;;4992250;28;20034;-79
2021/09/30 16:03:07;;;;;;;2.03;0.60;;;;;;;;;;4981930;28;20030;-80
2021/09/30 16:05:34;;;;;;;2.15;0.40;;;;;;;;;;4998735;28;20558;-80
2021/09/30 16:08:00;;;;;;;2.05;0.60;;;;;;;;;;4999421;28;20037;-80
2021/09/30 16:10:26;;;;;;;2.25;0.60;;;;;;;;;;4997753;28;20492;-81
2021/09/30 16:12:52;;;;;;;3.25;0.50;;;;;;;;;;4998459;28;20560;-81
2021/09/30 16:15:18;;;;;;;3.80;0.60;;;;;;;;;;5000898;28;20058;-80
2021/09/30 16:17:44;;;;;;;2.60;0.70;;;;;;;;;;5001031;28;20401;-80
2021/09/30 16:20:28;;;;;;;0.75;0.40;;;;;;;;;;5000683;28;20100;-81
2021/09/30 16:22:54;;;;;;;1.95;0.50;;;;;;;;;;4999208;28;20522;-79
2021/09/30 16:25:22;;;;;;;4.85;0.63;;;;;;;;;;4997926;28;20038;-80
2021/09/30 16:27:49;;;;;;;3.67;0.47;;;;;;;;;;4981105;28;20110;-80
2021/09/30 16:30:15;;;;;;;4.40;0.60;;;;;;;;;;5000613;28;20034;-80
2021/09/30 16:32:41;;;;;;;2.28;0.45;;;;;;;;;;5001640;28;20023;-80
2021/09/30 16:35:07;;;;;;;2.03;0.57;;;;;;;;;;4979669;28;20122;-80
2021/09/30 16:37:33;;;;;;;3.22;0.70;;;;;;;;;;4998557;28;20049;-80
2021/09/30 16:39:59;;;;;;;3.92;0.80;;;;;;;;;;4996996;28;20110;-80
2021/09/30 16:42:25;;;;;;;3.42;0.80;;;;;;;;;;4979722;28;20045;-79
2021/09/30 16:44:52;;;;;;;5.20;0.57;;;;;;;;;;4997537;28;20546;-79
2021/09/30 16:47:18;;;;;;;3.67;0.70;;;;;;;;;;4997208;28;20132;-79
2021/09/30 16:49:45;;;;;;;1.95;0.60;;;;;;;;;;5006247;23;20038;-77
2021/09/30 16:52:11;;;;;;;2.03;0.70;;;;;;;;;;4988353;28;20027;-76
2021/09/30 16:54:37;;;;;;;2.22;0.70;;;;;;;;;;4983410;28;20050;-77
2021/09/30 16:57:03;;;;;;;1.90;0.60;;;;;;;;;;4981603;28;20065;-77
2021/09/30 16:59:29;;;;;;;2.80;1.20;;;;;;;;;;4999540;28;20022;-78
2021/09/30 17:01:58;;;;;;;3.45;1.08;;;;;;;;;;4982468;28;20026;-78
2021/09/30 17:04:25;;;;;;;2.80;0.98;;;;;;;;;;4982228;28;20100;-78
2021/09/30 17:06:51;;;;;;;5.03;1.27;;;;;;;;;;4995304;28;20065;-78
2021/09/30 17:09:17;;;;;;;3.67;1.33;;;;;;;;;;4994031;28;20487;-77
2021/09/30 17:11:43;;;;;;;4.13;1.27;;;;;;;;;;4997699;28;20026;-77
2021/09/30 17:14:09;;;;;;;5.35;1.30;;;;;;;;;;5000658;28;20026;-78
2021/09/30 17:16:35;;;;;;;4.53;1.10;;;;;;;;;;5001029;28;20033;-77
2021/09/30 17:19:02;;;;;;;1.33;0.70;;;;;;;;;;5001061;28;20165;-77
2021/09/30 17:21:28;;;;;;;1.70;0.68;;;;;;;;;;4978639;28;20026;-76
2021/09/30 17:23:56;;;;;;;3.42;1.10;;;;;;;;;;4994949;28;20549;-77
2021/09/30 17:26:22;;;;;;;3.20;1.23;;;;;;;;;;4977929;28;20047;-78
2021/09/30 17:28:48;;;;;;;6.00;1.77;;;;;;;;;;4993222;28;20031;-77
2021/09/30 17:31:15;;;;;;;5.20;2.17;;;;;;;;;;4976842;28;20438;-77
2021/09/30 17:33:41;;;;;;;5.22;1.80;;;;;;;;;;4994289;28;20076;-77
2021/09/30 17:36:07;;;;;;;5.78;1.92;;;;;;;;;;4976888;28;20018;-77